sensor_id;sensor_type;location;lat;lon;timestamp;P1;durP1;ratioP1;P2;durP2;ratioP2
23730;SDS011;12046;44.702;10.622;2022-08-03T00:01:59;2.75;;;1.33;;
23730;SDS011;12046;44.702;10.622;2022-08-03T00:04:28;1.45;;;1.35;;
23730;SDS011;12046;44.702;10.622;2022-08-03T00:06:54;4.90;;;1.50;;
23730;SDS011;12046;44.702;10.622;2022-08-03T00:09:20;2.10;;;1.60;;
23730;SDS011;12046;44.702;10.622;2022-08-03T00:11:46;3.55;;;1.58;;
23730;SDS011;12046;44.702;10.622;2022-08-03T00:14:11;3.25;;;1.48;;
23730;SDS011;12046;44.702;10.622;2022-08-03T00:16:37;3.97;;;1.65;;
23730;SDS011;12046;44.702;10.622;2022-08-03T00:19:03;2.28;;;1.70;;
23730;SDS011;12046;44.702;10.622;2022-08-03T00:21:29;5.07;;;1.60;;
23730;SDS011;12046;44.702;10.622;2022-08-03T00:23:55;2.50;;;1.40;;
23730;SDS011;12046;44.702;10.622;2022-08-03T00:26:21;1.52;;;1.33;;
23730;SDS011;12046;44.702;10.622;2022-08-03T00:28:48;1.40;;;1.30;;
23730;SDS011;12046;44.702;10.622;2022-08-03T00:31:14;4.53;;;1.67;;
23730;SDS011;12046;44.702;10.622;2022-08-03T00:33:40;2.78;;;1.23;;
23730;SDS011;12046;44.702;10.622;2022-08-03T00:36:06;3.90;;;1.58;;
23730;SDS011;12046;44.702;10.622;2022-08-03T00:38:32;1.30;;;1.20;;
23730;SDS011;12046;44.702;10.622;2022-08-03T00:40:58;2.30;;;1.25;;
23730;SDS011;12046;44.702;10.622;2022-08-03T00:43:24;1.48;;;1.17;;
23730;SDS011;12046;44.702;10.622;2022-08-03T00:45:53;1.85;;;1.38;;
23730;SDS011;12046;44.702;10.622;2022-08-03T00:48:19;2.55;;;1.38;;
23730;SDS011;12046;44.702;10.622;2022-08-03T00:50:45;3.35;;;1.70;;
23730;SDS011;12046;44.702;10.622;2022-08-03T00:53:12;2.38;;;1.42;;
23730;SDS011;12046;44.702;10.622;2022-08-03T00:55:39;3.13;;;1.50;;
23730;SDS011;12046;44.702;10.622;2022-08-03T00:58:06;2.05;;;1.42;;
23730;SDS011;12046;44.702;10.622;2022-08-03T01:00:35;2.40;;;1.50;;
23730;SDS011;12046;44.702;10.622;2022-08-03T01:03:03;4.43;;;1.58;;
23730;SDS011;12046;44.702;10.622;2022-08-03T01:05:32;6.32;;;1.83;;
23730;SDS011;12046;44.702;10.622;2022-08-03T01:08:26;2.65;;;1.73;;
23730;SDS011;12046;44.702;10.622;2022-08-03T01:11:14;2.10;;;1.52;;
23730;SDS011;12046;44.702;10.622;2022-08-03T01:14:08;2.58;;;1.35;;
23730;SDS011;12046;44.702;10.622;2022-08-03T01:19:40;3.03;;;1.50;;
23730;SDS011;12046;44.702;10.622;2022-08-03T01:22:22;2.95;;;2.17;;
23730;SDS011;12046;44.702;10.622;2022-08-03T01:25:05;5.38;;;1.30;;
23730;SDS011;12046;44.702;10.622;2022-08-03T01:30:55;3.33;;;1.67;;
23730;SDS011;12046;44.702;10.622;2022-08-03T01:33:28;1.67;;;1.38;;
23730;SDS011;12046;44.702;10.622;2022-08-03T01:36:52;3.38;;;1.63;;
23730;SDS011;12046;44.702;10.622;2022-08-03T01:39:04;3.63;;;1.42;;
23730;SDS011;12046;44.702;10.622;2022-08-03T01:41:43;2.40;;;1.67;;
23730;SDS011;12046;44.702;10.622;2022-08-03T01:44:13;1.95;;;1.77;;
23730;SDS011;12046;44.702;10.622;2022-08-03T01:46:40;4.18;;;1.50;;
23730;SDS011;12046;44.702;10.622;2022-08-03T01:49:08;1.83;;;1.50;;
23730;SDS011;12046;44.702;10.622;2022-08-03T01:51:41;1.60;;;1.50;;
23730;SDS011;12046;44.702;10.622;2022-08-03T01:54:10;1.48;;;1.23;;
23730;SDS011;12046;44.702;10.622;2022-08-03T01:56:38;3.75;;;1.63;;
23730;SDS011;12046;44.702;10.622;2022-08-03T01:59:07;1.85;;;1.58;;
23730;SDS011;12046;44.702;10.622;2022-08-03T02:01:36;3.10;;;1.25;;
23730;SDS011;12046;44.702;10.622;2022-08-03T02:04:03;5.00;;;1.92;;
23730;SDS011;12046;44.702;10.622;2022-08-03T02:06:32;2.05;;;1.70;;
23730;SDS011;12046;44.702;10.622;2022-08-03T02:09:00;2.42;;;1.67;;
23730;SDS011;12046;44.702;10.622;2022-08-03T02:11:27;4.28;;;2.00;;
23730;SDS011;12046;44.702;10.622;2022-08-03T02:13:56;4.07;;;2.22;;
23730;SDS011;12046;44.702;10.622;2022-08-03T02:16:25;3.17;;;2.60;;
23730;SDS011;12046;44.702;10.622;2022-08-03T02:18:53;4.53;;;3.30;;
23730;SDS011;12046;44.702;10.622;2022-08-03T02:21:20;5.05;;;3.67;;
23730;SDS011;12046;44.702;10.622;2022-08-03T02:23:47;4.53;;;3.17;;
23730;SDS011;12046;44.702;10.622;2022-08-03T02:26:14;7.35;;;4.30;;
23730;SDS011;12046;44.702;10.622;2022-08-03T02:28:44;7.20;;;4.40;;
23730;SDS011;12046;44.702;10.622;2022-08-03T02:31:18;5.50;;;4.35;;
23730;SDS011;12046;44.702;10.622;2022-08-03T02:33:55;6.30;;;4.00;;
23730;SDS011;12046;44.702;10.622;2022-08-03T02:36:27;3.90;;;3.50;;
23730;SDS011;12046;44.702;10.622;2022-08-03T02:38:56;6.13;;;3.42;;
23730;SDS011;12046;44.702;10.622;2022-08-03T02:41:29;8.05;;;3.47;;
23730;SDS011;12046;44.702;10.622;2022-08-03T02:43:59;5.82;;;3.40;;
23730;SDS011;12046;44.702;10.622;2022-08-03T02:46:29;6.40;;;3.65;;
23730;SDS011;12046;44.702;10.622;2022-08-03T02:48:59;5.63;;;3.65;;
23730;SDS011;12046;44.702;10.622;2022-08-03T02:51:28;12.93;;;4.75;;
23730;SDS011;12046;44.702;10.622;2022-08-03T02:53:56;7.15;;;4.28;;
23730;SDS011;12046;44.702;10.622;2022-08-03T02:56:26;7.05;;;3.70;;
23730;SDS011;12046;44.702;10.622;2022-08-03T02:58:53;4.50;;;3.80;;
23730;SDS011;12046;44.702;10.622;2022-08-03T03:01:21;4.38;;;3.95;;
23730;SDS011;12046;44.702;10.622;2022-08-03T03:03:49;5.20;;;4.38;;
23730;SDS011;12046;44.702;10.622;2022-08-03T03:06:18;4.85;;;4.05;;
23730;SDS011;12046;44.702;10.622;2022-08-03T03:08:45;5.28;;;4.22;;
23730;SDS011;12046;44.702;10.622;2022-08-03T03:11:12;6.85;;;4.40;;
23730;SDS011;12046;44.702;10.622;2022-08-03T03:13:40;5.30;;;4.38;;
23730;SDS011;12046;44.702;10.622;2022-08-03T03:16:08;7.05;;;4.57;;
23730;SDS011;12046;44.702;10.622;2022-08-03T03:18:37;7.93;;;5.05;;
23730;SDS011;12046;44.702;10.622;2022-08-03T03:21:04;9.35;;;5.13;;
23730;SDS011;12046;44.702;10.622;2022-08-03T03:23:35;5.60;;;4.38;;
23730;SDS011;12046;44.702;10.622;2022-08-03T03:26:03;6.80;;;5.07;;
23730;SDS011;12046;44.702;10.622;2022-08-03T03:28:30;8.20;;;5.47;;
23730;SDS011;12046;44.702;10.622;2022-08-03T03:30:57;13.70;;;5.72;;
23730;SDS011;12046;44.702;10.622;2022-08-03T03:33:23;8.57;;;5.32;;
23730;SDS011;12046;44.702;10.622;2022-08-03T03:35:49;10.35;;;6.18;;
23730;SDS011;12046;44.702;10.622;2022-08-03T03:38:16;16.83;;;11.05;;
23730;SDS011;12046;44.702;10.622;2022-08-03T03:40:43;12.18;;;9.52;;
23730;SDS011;12046;44.702;10.622;2022-08-03T03:43:09;11.27;;;9.50;;
23730;SDS011;12046;44.702;10.622;2022-08-03T03:45:36;10.20;;;6.70;;
23730;SDS011;12046;44.702;10.622;2022-08-03T03:48:04;8.07;;;5.93;;
23730;SDS011;12046;44.702;10.622;2022-08-03T03:50:32;8.73;;;5.88;;
23730;SDS011;12046;44.702;10.622;2022-08-03T03:52:59;7.28;;;5.70;;
23730;SDS011;12046;44.702;10.622;2022-08-03T03:55:26;6.35;;;5.10;;
23730;SDS011;12046;44.702;10.622;2022-08-03T03:57:53;8.95;;;4.85;;
23730;SDS011;12046;44.702;10.622;2022-08-03T04:00:18;5.80;;;5.10;;
23730;SDS011;12046;44.702;10.622;2022-08-03T04:02:45;8.50;;;4.93;;
23730;SDS011;12046;44.702;10.622;2022-08-03T04:05:11;9.77;;;4.65;;
23730;SDS011;12046;44.702;10.622;2022-08-03T04:10:53;6.82;;;4.75;;
23730;SDS011;12046;44.702;10.622;2022-08-03T04:13:40;6.20;;;4.80;;
23730;SDS011;12046;44.702;10.622;2022-08-03T04:16:29;8.02;;;4.68;;
23730;SDS011;12046;44.702;10.622;2022-08-03T04:18:59;9.73;;;5.00;;
23730;SDS011;12046;44.702;10.622;2022-08-03T04:21:28;5.13;;;4.05;;
23730;SDS011;12046;44.702;10.622;2022-08-03T04:23:57;8.00;;;3.85;;
23730;SDS011;12046;44.702;10.622;2022-08-03T04:26:26;4.72;;;3.60;;
23730;SDS011;12046;44.702;10.622;2022-08-03T04:28:57;3.60;;;3.10;;
23730;SDS011;12046;44.702;10.622;2022-08-03T04:31:24;3.80;;;2.90;;
23730;SDS011;12046;44.702;10.622;2022-08-03T04:33:51;4.85;;;2.90;;
23730;SDS011;12046;44.702;10.622;2022-08-03T04:36:20;4.45;;;2.50;;
23730;SDS011;12046;44.702;10.622;2022-08-03T04:41:26;6.82;;;2.40;;
23730;SDS011;12046;44.702;10.622;2022-08-03T04:43:53;2.72;;;2.38;;
23730;SDS011;12046;44.702;10.622;2022-08-03T04:46:21;4.22;;;2.67;;
23730;SDS011;12046;44.702;10.622;2022-08-03T04:48:50;4.05;;;2.92;;
23730;SDS011;12046;44.702;10.622;2022-08-03T04:51:17;3.88;;;2.85;;
23730;SDS011;12046;44.702;10.622;2022-08-03T04:53:43;4.32;;;3.05;;
23730;SDS011;12046;44.702;10.622;2022-08-03T04:56:09;6.45;;;3.38;;
23730;SDS011;12046;44.702;10.622;2022-08-03T04:58:35;4.88;;;3.55;;
23730;SDS011;12046;44.702;10.622;2022-08-03T05:01:01;5.63;;;3.50;;
23730;SDS011;12046;44.702;10.622;2022-08-03T05:03:27;4.72;;;3.50;;
23730;SDS011;12046;44.702;10.622;2022-08-03T05:05:54;6.63;;;3.33;;
23730;SDS011;12046;44.702;10.622;2022-08-03T05:08:20;6.68;;;3.30;;
23730;SDS011;12046;44.702;10.622;2022-08-03T05:10:46;3.33;;;2.95;;
23730;SDS011;12046;44.702;10.622;2022-08-03T05:13:12;3.13;;;2.83;;
23730;SDS011;12046;44.702;10.622;2022-08-03T05:15:38;4.35;;;2.92;;
23730;SDS011;12046;44.702;10.622;2022-08-03T05:18:04;4.70;;;2.67;;
23730;SDS011;12046;44.702;10.622;2022-08-03T05:20:30;3.03;;;2.53;;
23730;SDS011;12046;44.702;10.622;2022-08-03T05:22:57;3.58;;;2.58;;
23730;SDS011;12046;44.702;10.622;2022-08-03T05:25:25;3.17;;;2.88;;
23730;SDS011;12046;44.702;10.622;2022-08-03T05:27:51;3.65;;;2.80;;
23730;SDS011;12046;44.702;10.622;2022-08-03T05:30:17;3.78;;;2.65;;
23730;SDS011;12046;44.702;10.622;2022-08-03T05:32:43;9.55;;;2.92;;
23730;SDS011;12046;44.702;10.622;2022-08-03T05:35:09;5.25;;;2.70;;
23730;SDS011;12046;44.702;10.622;2022-08-03T05:37:35;3.83;;;2.42;;
23730;SDS011;12046;44.702;10.622;2022-08-03T05:40:01;4.80;;;2.67;;
23730;SDS011;12046;44.702;10.622;2022-08-03T05:42:28;4.53;;;2.63;;
23730;SDS011;12046;44.702;10.622;2022-08-03T05:44:54;3.38;;;2.50;;
23730;SDS011;12046;44.702;10.622;2022-08-03T05:47:20;2.72;;;2.50;;
23730;SDS011;12046;44.702;10.622;2022-08-03T05:49:45;7.47;;;2.85;;
23730;SDS011;12046;44.702;10.622;2022-08-03T05:52:11;5.75;;;2.85;;
23730;SDS011;12046;44.702;10.622;2022-08-03T05:54:37;4.50;;;3.15;;
23730;SDS011;12046;44.702;10.622;2022-08-03T05:57:03;2.75;;;2.42;;
23730;SDS011;12046;44.702;10.622;2022-08-03T05:59:29;5.45;;;2.40;;
23730;SDS011;12046;44.702;10.622;2022-08-03T06:01:55;4.28;;;2.53;;
23730;SDS011;12046;44.702;10.622;2022-08-03T06:04:21;3.20;;;2.45;;
23730;SDS011;12046;44.702;10.622;2022-08-03T06:06:47;2.88;;;2.10;;
23730;SDS011;12046;44.702;10.622;2022-08-03T06:09:15;4.55;;;2.28;;
23730;SDS011;12046;44.702;10.622;2022-08-03T06:11:42;4.45;;;2.53;;
23730;SDS011;12046;44.702;10.622;2022-08-03T06:14:07;3.15;;;2.53;;
23730;SDS011;12046;44.702;10.622;2022-08-03T06:16:33;7.72;;;2.75;;
23730;SDS011;12046;44.702;10.622;2022-08-03T06:19:00;2.83;;;2.50;;
23730;SDS011;12046;44.702;10.622;2022-08-03T06:21:26;3.35;;;2.53;;
23730;SDS011;12046;44.702;10.622;2022-08-03T06:23:52;4.57;;;2.80;;
23730;SDS011;12046;44.702;10.622;2022-08-03T06:26:18;3.85;;;2.95;;
23730;SDS011;12046;44.702;10.622;2022-08-03T06:28:44;3.20;;;2.70;;
23730;SDS011;12046;44.702;10.622;2022-08-03T06:31:10;5.05;;;2.40;;
23730;SDS011;12046;44.702;10.622;2022-08-03T06:33:36;3.80;;;2.75;;
23730;SDS011;12046;44.702;10.622;2022-08-03T06:36:02;4.95;;;3.30;;
23730;SDS011;12046;44.702;10.622;2022-08-03T06:38:28;5.13;;;2.45;;
23730;SDS011;12046;44.702;10.622;2022-08-03T06:40:54;6.03;;;2.80;;
23730;SDS011;12046;44.702;10.622;2022-08-03T06:43:20;3.90;;;2.40;;
23730;SDS011;12046;44.702;10.622;2022-08-03T06:45:46;6.82;;;3.20;;
23730;SDS011;12046;44.702;10.622;2022-08-03T06:48:12;7.63;;;2.60;;
23730;SDS011;12046;44.702;10.622;2022-08-03T06:50:39;4.38;;;2.67;;
23730;SDS011;12046;44.702;10.622;2022-08-03T06:53:06;4.75;;;2.08;;
23730;SDS011;12046;44.702;10.622;2022-08-03T06:55:33;4.63;;;2.38;;
23730;SDS011;12046;44.702;10.622;2022-08-03T06:57:59;3.08;;;2.63;;
23730;SDS011;12046;44.702;10.622;2022-08-03T07:00:25;5.88;;;2.72;;
23730;SDS011;12046;44.702;10.622;2022-08-03T07:02:52;5.72;;;2.20;;
23730;SDS011;12046;44.702;10.622;2022-08-03T07:05:19;3.97;;;2.17;;
23730;SDS011;12046;44.702;10.622;2022-08-03T07:07:45;7.90;;;2.25;;
23730;SDS011;12046;44.702;10.622;2022-08-03T07:10:11;4.03;;;2.78;;
23730;SDS011;12046;44.702;10.622;2022-08-03T07:12:37;3.25;;;2.95;;
23730;SDS011;12046;44.702;10.622;2022-08-03T07:15:04;3.70;;;2.70;;
23730;SDS011;12046;44.702;10.622;2022-08-03T07:17:32;6.60;;;2.78;;
23730;SDS011;12046;44.702;10.622;2022-08-03T07:19:59;4.15;;;3.13;;
23730;SDS011;12046;44.702;10.622;2022-08-03T07:22:26;3.63;;;2.40;;
23730;SDS011;12046;44.702;10.622;2022-08-03T07:24:52;5.38;;;2.55;;
23730;SDS011;12046;44.702;10.622;2022-08-03T07:27:18;6.35;;;2.72;;
23730;SDS011;12046;44.702;10.622;2022-08-03T07:29:45;4.55;;;2.50;;
23730;SDS011;12046;44.702;10.622;2022-08-03T07:32:10;2.13;;;1.85;;
23730;SDS011;12046;44.702;10.622;2022-08-03T07:34:36;9.80;;;2.50;;
23730;SDS011;12046;44.702;10.622;2022-08-03T07:37:02;3.97;;;2.03;;
23730;SDS011;12046;44.702;10.622;2022-08-03T07:39:28;5.53;;;2.22;;
23730;SDS011;12046;44.702;10.622;2022-08-03T07:41:54;7.75;;;2.40;;
23730;SDS011;12046;44.702;10.622;2022-08-03T07:44:20;1.80;;;1.70;;
23730;SDS011;12046;44.702;10.622;2022-08-03T07:46:46;4.07;;;2.10;;
23730;SDS011;12046;44.702;10.622;2022-08-03T07:49:12;2.65;;;2.20;;
23730;SDS011;12046;44.702;10.622;2022-08-03T07:51:38;8.82;;;2.10;;
23730;SDS011;12046;44.702;10.622;2022-08-03T07:54:04;3.45;;;2.15;;
23730;SDS011;12046;44.702;10.622;2022-08-03T07:56:30;4.13;;;2.13;;
23730;SDS011;12046;44.702;10.622;2022-08-03T07:58:56;2.95;;;1.90;;
23730;SDS011;12046;44.702;10.622;2022-08-03T08:01:24;2.05;;;1.85;;
23730;SDS011;12046;44.702;10.622;2022-08-03T08:03:50;4.15;;;2.30;;
23730;SDS011;12046;44.702;10.622;2022-08-03T08:06:16;7.20;;;2.70;;
23730;SDS011;12046;44.702;10.622;2022-08-03T08:08:42;3.05;;;2.08;;
23730;SDS011;12046;44.702;10.622;2022-08-03T08:11:08;4.88;;;1.90;;
23730;SDS011;12046;44.702;10.622;2022-08-03T08:13:34;6.95;;;2.30;;
23730;SDS011;12046;44.702;10.622;2022-08-03T08:16:01;2.38;;;1.85;;
23730;SDS011;12046;44.702;10.622;2022-08-03T08:18:30;5.65;;;2.58;;
23730;SDS011;12046;44.702;10.622;2022-08-03T08:20:57;5.90;;;3.03;;
23730;SDS011;12046;44.702;10.622;2022-08-03T08:23:23;4.07;;;2.25;;
23730;SDS011;12046;44.702;10.622;2022-08-03T08:25:50;4.47;;;2.53;;
23730;SDS011;12046;44.702;10.622;2022-08-03T08:28:17;4.45;;;2.85;;
23730;SDS011;12046;44.702;10.622;2022-08-03T08:30:43;6.07;;;2.42;;
23730;SDS011;12046;44.702;10.622;2022-08-03T08:33:09;4.30;;;2.63;;
23730;SDS011;12046;44.702;10.622;2022-08-03T08:35:39;3.13;;;2.20;;
23730;SDS011;12046;44.702;10.622;2022-08-03T08:38:05;3.53;;;2.28;;
23730;SDS011;12046;44.702;10.622;2022-08-03T08:40:31;8.60;;;2.88;;
23730;SDS011;12046;44.702;10.622;2022-08-03T08:42:57;4.13;;;2.47;;
23730;SDS011;12046;44.702;10.622;2022-08-03T08:45:24;3.17;;;2.88;;
23730;SDS011;12046;44.702;10.622;2022-08-03T08:47:54;4.13;;;2.80;;
23730;SDS011;12046;44.702;10.622;2022-08-03T08:50:22;4.57;;;2.10;;
23730;SDS011;12046;44.702;10.622;2022-08-03T08:52:49;2.63;;;2.22;;
23730;SDS011;12046;44.702;10.622;2022-08-03T08:55:21;3.40;;;2.60;;
23730;SDS011;12046;44.702;10.622;2022-08-03T08:57:49;3.70;;;2.35;;
23730;SDS011;12046;44.702;10.622;2022-08-03T09:00:17;2.95;;;2.30;;
23730;SDS011;12046;44.702;10.622;2022-08-03T09:02:44;3.83;;;2.33;;
23730;SDS011;12046;44.702;10.622;2022-08-03T09:05:14;2.58;;;1.80;;
23730;SDS011;12046;44.702;10.622;2022-08-03T09:07:42;4.45;;;2.20;;
23730;SDS011;12046;44.702;10.622;2022-08-03T09:10:09;2.22;;;1.63;;
23730;SDS011;12046;44.702;10.622;2022-08-03T09:12:37;2.58;;;2.10;;
23730;SDS011;12046;44.702;10.622;2022-08-03T09:17:56;2.42;;;2.00;;
23730;SDS011;12046;44.702;10.622;2022-08-03T09:20:27;2.33;;;1.70;;
23730;SDS011;12046;44.702;10.622;2022-08-03T09:23:02;3.33;;;1.80;;
23730;SDS011;12046;44.702;10.622;2022-08-03T09:25:37;1.63;;;1.45;;
23730;SDS011;12046;44.702;10.622;2022-08-03T09:28:22;2.70;;;1.85;;
23730;SDS011;12046;44.702;10.622;2022-08-03T09:30:58;1.77;;;1.67;;
23730;SDS011;12046;44.702;10.622;2022-08-03T09:33:24;2.90;;;1.90;;
23730;SDS011;12046;44.702;10.622;2022-08-03T09:35:50;2.55;;;1.80;;
23730;SDS011;12046;44.702;10.622;2022-08-03T09:38:17;2.58;;;1.50;;
23730;SDS011;12046;44.702;10.622;2022-08-03T09:40:54;1.60;;;1.50;;
23730;SDS011;12046;44.702;10.622;2022-08-03T09:43:20;4.18;;;1.83;;
23730;SDS011;12046;44.702;10.622;2022-08-03T09:45:49;1.88;;;1.75;;
23730;SDS011;12046;44.702;10.622;2022-08-03T09:48:29;1.45;;;1.38;;
23730;SDS011;12046;44.702;10.622;2022-08-03T09:50:56;4.68;;;1.80;;
23730;SDS011;12046;44.702;10.622;2022-08-03T09:53:31;2.40;;;1.90;;
23730;SDS011;12046;44.702;10.622;2022-08-03T09:56:12;3.03;;;1.70;;
23730;SDS011;12046;44.702;10.622;2022-08-03T09:58:48;3.47;;;1.60;;
23730;SDS011;12046;44.702;10.622;2022-08-03T10:01:15;4.55;;;1.38;;
23730;SDS011;12046;44.702;10.622;2022-08-03T10:03:56;1.27;;;1.10;;
23730;SDS011;12046;44.702;10.622;2022-08-03T10:06:29;3.15;;;1.13;;
23730;SDS011;12046;44.702;10.622;2022-08-03T10:09:07;3.80;;;1.30;;
23730;SDS011;12046;44.702;10.622;2022-08-03T10:11:41;2.33;;;1.15;;
23730;SDS011;12046;44.702;10.622;2022-08-03T10:14:13;1.50;;;1.40;;
23730;SDS011;12046;44.702;10.622;2022-08-03T10:16:48;1.27;;;1.17;;
23730;SDS011;12046;44.702;10.622;2022-08-03T10:19:20;3.47;;;1.80;;
23730;SDS011;12046;44.702;10.622;2022-08-03T10:21:55;2.55;;;1.65;;
23730;SDS011;12046;44.702;10.622;2022-08-03T10:24:32;2.40;;;1.50;;
23730;SDS011;12046;44.702;10.622;2022-08-03T10:27:07;3.55;;;1.55;;
23730;SDS011;12046;44.702;10.622;2022-08-03T10:32:18;3.45;;;1.63;;
23730;SDS011;12046;44.702;10.622;2022-08-03T10:35:07;1.70;;;1.48;;
23730;SDS011;12046;44.702;10.622;2022-08-03T10:38:03;2.35;;;1.58;;
23730;SDS011;12046;44.702;10.622;2022-08-03T10:40:39;2.53;;;1.73;;
23730;SDS011;12046;44.702;10.622;2022-08-03T10:43:20;2.75;;;1.45;;
23730;SDS011;12046;44.702;10.622;2022-08-03T10:46:08;1.83;;;1.48;;
23730;SDS011;12046;44.702;10.622;2022-08-03T10:48:40;1.88;;;1.08;;
23730;SDS011;12046;44.702;10.622;2022-08-03T10:51:12;1.25;;;1.15;;
23730;SDS011;12046;44.702;10.622;2022-08-03T10:53:44;1.00;;;0.95;;
23730;SDS011;12046;44.702;10.622;2022-08-03T11:02:18;1.55;;;1.20;;
23730;SDS011;12046;44.702;10.622;2022-08-03T11:04:44;3.03;;;1.40;;
23730;SDS011;12046;44.702;10.622;2022-08-03T11:07:18;2.35;;;1.23;;
23730;SDS011;12046;44.702;10.622;2022-08-03T11:09:52;1.77;;;1.17;;
23730;SDS011;12046;44.702;10.622;2022-08-03T11:12:26;2.20;;;1.63;;
23730;SDS011;12046;44.702;10.622;2022-08-03T11:14:54;2.65;;;1.48;;
23730;SDS011;12046;44.702;10.622;2022-08-03T11:17:21;1.17;;;1.10;;
23730;SDS011;12046;44.702;10.622;2022-08-03T11:19:51;3.35;;;1.55;;
23730;SDS011;12046;44.702;10.622;2022-08-03T11:22:18;1.42;;;1.30;;
23730;SDS011;12046;44.702;10.622;2022-08-03T11:27:24;1.73;;;1.00;;
23730;SDS011;12046;44.702;10.622;2022-08-03T11:41:10;1.05;;;1.05;;
23730;SDS011;12046;44.702;10.622;2022-08-03T11:45:35;2.65;;;1.08;;
23730;SDS011;12046;44.702;10.622;2022-08-03T11:48:20;1.48;;;1.10;;
23730;SDS011;12046;44.702;10.622;2022-08-03T11:50:47;3.22;;;1.23;;
23730;SDS011;12046;44.702;10.622;2022-08-03T11:53:15;4.65;;;1.42;;
23730;SDS011;12046;44.702;10.622;2022-08-03T11:55:43;1.98;;;1.13;;
23730;SDS011;12046;44.702;10.622;2022-08-03T11:58:20;1.35;;;1.00;;
23730;SDS011;12046;44.702;10.622;2022-08-03T12:00:47;1.15;;;1.05;;
23730;SDS011;12046;44.702;10.622;2022-08-03T12:03:18;1.30;;;0.98;;
23730;SDS011;12046;44.702;10.622;2022-08-03T12:05:46;1.13;;;1.02;;
23730;SDS011;12046;44.702;10.622;2022-08-03T12:08:15;1.58;;;1.10;;
23730;SDS011;12046;44.702;10.622;2022-08-03T12:10:47;1.33;;;1.23;;
23730;SDS011;12046;44.702;10.622;2022-08-03T12:13:15;1.50;;;1.40;;
23730;SDS011;12046;44.702;10.622;2022-08-03T12:15:42;2.25;;;1.30;;
23730;SDS011;12046;44.702;10.622;2022-08-03T12:18:15;4.90;;;1.70;;
23730;SDS011;12046;44.702;10.622;2022-08-03T12:20:42;2.25;;;1.40;;
23730;SDS011;12046;44.702;10.622;2022-08-03T12:23:10;1.60;;;1.02;;
23730;SDS011;12046;44.702;10.622;2022-08-03T12:25:37;3.05;;;1.10;;
23730;SDS011;12046;44.702;10.622;2022-08-03T12:28:05;1.33;;;1.08;;
23730;SDS011;12046;44.702;10.622;2022-08-03T12:30:37;2.40;;;1.00;;
23730;SDS011;12046;44.702;10.622;2022-08-03T12:33:17;4.15;;;1.02;;
23730;SDS011;12046;44.702;10.622;2022-08-03T12:36:28;1.30;;;1.20;;
23730;SDS011;12046;44.702;10.622;2022-08-03T12:38:37;7.82;;;1.65;;
23730;SDS011;12046;44.702;10.622;2022-08-03T12:41:04;3.47;;;1.10;;
23730;SDS011;12046;44.702;10.622;2022-08-03T12:43:33;1.92;;;0.90;;
23730;SDS011;12046;44.702;10.622;2022-08-03T12:46:09;1.35;;;1.25;;
23730;SDS011;12046;44.702;10.622;2022-08-03T12:54:08;0.82;;;0.82;;
23730;SDS011;12046;44.702;10.622;2022-08-03T12:56:55;1.65;;;1.15;;
23730;SDS011;12046;44.702;10.622;2022-08-03T12:59:27;1.35;;;1.25;;
23730;SDS011;12046;44.702;10.622;2022-08-03T13:02:15;1.20;;;1.10;;
23730;SDS011;12046;44.702;10.622;2022-08-03T13:04:42;1.48;;;1.10;;
23730;SDS011;12046;44.702;10.622;2022-08-03T13:07:10;1.55;;;1.20;;
23730;SDS011;12046;44.702;10.622;2022-08-03T13:09:40;0.90;;;0.90;;
23730;SDS011;12046;44.702;10.622;2022-08-03T13:14:38;0.88;;;0.85;;
23730;SDS011;12046;44.702;10.622;2022-08-03T13:17:05;0.85;;;0.80;;
23730;SDS011;12046;44.702;10.622;2022-08-03T13:19:34;2.40;;;1.05;;
23730;SDS011;12046;44.702;10.622;2022-08-03T13:22:11;1.38;;;1.08;;
23730;SDS011;12046;44.702;10.622;2022-08-03T13:24:45;1.45;;;0.95;;
23730;SDS011;12046;44.702;10.622;2022-08-03T13:27:13;4.05;;;1.10;;
23730;SDS011;12046;44.702;10.622;2022-08-03T13:29:40;1.88;;;0.95;;
23730;SDS011;12046;44.702;10.622;2022-08-03T13:32:08;2.47;;;1.25;;
23730;SDS011;12046;44.702;10.622;2022-08-03T13:34:35;4.03;;;1.30;;
23730;SDS011;12046;44.702;10.622;2022-08-03T13:37:02;2.42;;;0.90;;
23730;SDS011;12046;44.702;10.622;2022-08-03T13:39:28;1.17;;;1.00;;
23730;SDS011;12046;44.702;10.622;2022-08-03T13:41:54;1.17;;;0.80;;
23730;SDS011;12046;44.702;10.622;2022-08-03T13:44:20;1.38;;;1.00;;
23730;SDS011;12046;44.702;10.622;2022-08-03T13:46:47;3.65;;;0.90;;
23730;SDS011;12046;44.702;10.622;2022-08-03T13:49:13;1.85;;;0.77;;
23730;SDS011;12046;44.702;10.622;2022-08-03T13:51:40;4.95;;;1.48;;
23730;SDS011;12046;44.702;10.622;2022-08-03T13:54:11;1.10;;;1.00;;
23730;SDS011;12046;44.702;10.622;2022-08-03T13:56:37;2.30;;;0.95;;
23730;SDS011;12046;44.702;10.622;2022-08-03T13:59:03;1.92;;;1.10;;
23730;SDS011;12046;44.702;10.622;2022-08-03T14:01:30;0.82;;;0.82;;
23730;SDS011;12046;44.702;10.622;2022-08-03T14:03:56;2.60;;;0.93;;
23730;SDS011;12046;44.702;10.622;2022-08-03T14:06:23;1.38;;;1.05;;
23730;SDS011;12046;44.702;10.622;2022-08-03T14:08:49;1.85;;;0.90;;
23730;SDS011;12046;44.702;10.622;2022-08-03T14:11:16;0.80;;;0.80;;
23730;SDS011;12046;44.702;10.622;2022-08-03T14:13:45;0.70;;;0.70;;
23730;SDS011;12046;44.702;10.622;2022-08-03T14:16:11;1.10;;;1.00;;
23730;SDS011;12046;44.702;10.622;2022-08-03T14:18:37;1.48;;;1.20;;
23730;SDS011;12046;44.702;10.622;2022-08-03T14:21:03;1.10;;;1.00;;
23730;SDS011;12046;44.702;10.622;2022-08-03T14:23:30;1.20;;;1.05;;
23730;SDS011;12046;44.702;10.622;2022-08-03T14:25:56;1.38;;;1.10;;
23730;SDS011;12046;44.702;10.622;2022-08-03T14:28:22;1.02;;;1.00;;
23730;SDS011;12046;44.702;10.622;2022-08-03T14:30:49;1.08;;;0.80;;
23730;SDS011;12046;44.702;10.622;2022-08-03T14:33:16;1.13;;;0.90;;
23730;SDS011;12046;44.702;10.622;2022-08-03T14:35:42;1.88;;;1.10;;
23730;SDS011;12046;44.702;10.622;2022-08-03T14:38:08;2.10;;;0.98;;
23730;SDS011;12046;44.702;10.622;2022-08-03T14:40:35;3.88;;;1.20;;
23730;SDS011;12046;44.702;10.622;2022-08-03T14:43:01;2.80;;;1.17;;
23730;SDS011;12046;44.702;10.622;2022-08-03T14:45:27;2.25;;;1.00;;
23730;SDS011;12046;44.702;10.622;2022-08-03T14:47:53;3.70;;;0.90;;
23730;SDS011;12046;44.702;10.622;2022-08-03T14:50:19;1.50;;;1.15;;
23730;SDS011;12046;44.702;10.622;2022-08-03T14:52:46;2.05;;;0.95;;
23730;SDS011;12046;44.702;10.622;2022-08-03T14:55:12;1.10;;;1.10;;
23730;SDS011;12046;44.702;10.622;2022-08-03T14:57:38;1.85;;;1.13;;
23730;SDS011;12046;44.702;10.622;2022-08-03T15:00:04;1.25;;;1.10;;
23730;SDS011;12046;44.702;10.622;2022-08-03T15:02:31;1.23;;;1.13;;
23730;SDS011;12046;44.702;10.622;2022-08-03T15:04:57;1.40;;;0.85;;
23730;SDS011;12046;44.702;10.622;2022-08-03T15:07:23;2.65;;;0.98;;
23730;SDS011;12046;44.702;10.622;2022-08-03T15:09:49;2.30;;;1.50;;
23730;SDS011;12046;44.702;10.622;2022-08-03T15:12:15;1.15;;;1.08;;
23730;SDS011;12046;44.702;10.622;2022-08-03T15:14:41;3.92;;;1.05;;
23730;SDS011;12046;44.702;10.622;2022-08-03T15:17:07;2.67;;;1.17;;
23730;SDS011;12046;44.702;10.622;2022-08-03T15:19:34;1.75;;;1.20;;
23730;SDS011;12046;44.702;10.622;2022-08-03T15:22:00;3.78;;;1.33;;
23730;SDS011;12046;44.702;10.622;2022-08-03T15:24:26;0.90;;;0.90;;
23730;SDS011;12046;44.702;10.622;2022-08-03T15:26:52;1.85;;;1.13;;
23730;SDS011;12046;44.702;10.622;2022-08-03T15:29:18;1.98;;;0.80;;
23730;SDS011;12046;44.702;10.622;2022-08-03T15:31:44;1.80;;;1.10;;